Bartlett — CGDR — position and weather

sailwx.info

Track history (hours):
 
Tides and Currents Weather Stations Pressure Air Temp Water Temp Dewpoint Dewpoint Depression Visibility Wind Speed Wind Dir Waves Ship Positions

Bartlett

Last reported at 2018-Feb-23 23:00 UTC. Time now 2018-Feb-24 02:29 UTC.
Position N 52°16' W 128°23'.

Length 57 m; beam 13.07 m; draft 3.8 m.

Type: Other ship. MMSI: 316182000.

Date/timePositionNaut miles runAvg speedWind from/ knotsBaromVisibWave heightAir tempDewpointWater temp
2018-Feb-23 23:00N 52°16' W 128°23'510.5
2018-Feb-23 22:29N 52°14' W 128°15'611.7
2018-Feb-23 22:00N 52°12' W 128°06'134.0 140 / 141015.9 3.9 3.0
2018-Feb-23 21:59N 52°12' W 128°07'2 4.2
2018-Feb-23 21:30N 52°10' W 128°08'3 6.6
2018-Feb-23 21:00N 52°07' W 128°08'2106.5
2018-Feb-23 21:00N 52°06' W 128°06'4 7.6 130 / 91017.2 3.8 3.2
2018-Feb-23 20:28N 52°05' W 127°60'4 9.7
2018-Feb-23 20:00N 52°01' W 127°56'2101.4
2018-Feb-23 20:00N 52°00' W 127°54'611.4 200 / 121018.4 3.8 2.6
2018-Feb-23 19:30N 51°55' W 127°56'612.5
2018-Feb-23 19:00N 51°48' W 127°56'178.9
2018-Feb-23 19:00N 51°48' W 127°54'612.3 160 / 221019.8 2.6 2.0
2018-Feb-23 18:30N 51°42' W 127°55'611.1
2018-Feb-23 18:00N 51°37' W 127°52'2114.9
2018-Feb-23 18:00N 51°36' W 127°54'2 4.1 170 / 51020.4 1.5 1.3
2018-Feb-23 17:30N 51°37' W 127°51'0 0.5
2018-Feb-23 17:00N 51°37' W 127°52'2115.5
2018-Feb-23 17:00N 51°36' W 127°54'4 8.6 190 / 171020.1 2.5 2.1
2018-Feb-23 16:30N 51°32' W 127°50'611.8
2018-Feb-23 16:00N 51°27' W 127°48'3186.6
2018-Feb-23 16:00N 51°24' W 127°48'2 2.6 150 / 281018.9 1.6 1.3
2018-Feb-23 15:12N 51°23' W 127°46'210.2
2018-Feb-23 15:00N 51°24' W 127°48'210.7 140 / 221019.7 0.3 0.3
2018-Feb-23 14:48N 51°23' W 127°46'0 0.0
2018-Feb-23 14:30N 51°23' W 127°46'0 0.0
2018-Feb-23 14:00N 51°23' W 127°46'0 0.0
2018-Feb-23 13:30N 51°23' W 127°46'0 0.0
2018-Feb-23 13:00N 51°23' W 127°46'0 0.0
2018-Feb-23 12:30N 51°23' W 127°46'0 0.0
2018-Feb-23 12:00N 51°23' W 127°46'2355.2
2018-Feb-23 12:00N 51°24' W 127°48'2 3.5 130 / 191023.1 2.2-1.2
2018-Feb-23 11:24N 51°23' W 127°46'0 0.0
2018-Feb-23 11:00N 51°23' W 127°46'0 0.0
2018-Feb-23 10:06N 51°23' W 127°46'0 0.4
2018-Feb-23 10:00N 51°23' W 127°46'0 0.0
2018-Feb-23 09:18N 51°23' W 127°46'0 0.0
2018-Feb-23 09:00N 51°23' W 127°46'0 0.0
2018-Feb-23 08:24N 51°23' W 127°46'0 0.0
2018-Feb-23 08:00N 51°23' W 127°46'0 0.1
2018-Feb-23 07:27N 51°23' W 127°46'0 0.0
2018-Feb-23 07:00N 51°23' W 127°46'0 0.0
2018-Feb-23 06:30N 51°23' W 127°46'0 0.0
2018-Feb-23 06:00N 51°23' W 127°46'2355.2
2018-Feb-23 06:00N 51°24' W 127°48'2 4.2 130 / 111028.9 2.4-1.9
2018-Feb-23 05:30N 51°23' W 127°46'0 0.1
2018-Feb-23 05:00N 51°23' W 127°46'0 0.0
2018-Feb-23 04:30N 51°23' W 127°46'0 0.1
2018-Feb-23 03:54N 51°23' W 127°46'0 0.1
2018-Feb-23 03:30N 51°23' W 127°46'0 0.0
2018-Feb-23 02:42N 51°23' W 127°46'0 0.0
2018-Feb-23 02:30N 51°23' W 127°46'0 0.0
2018-Feb-23 02:00N 51°23' W 127°46'2 3.1
2018-Feb-23 01:30N 51°24' W 127°47'5 9.2
2018-Feb-23 01:00N 51°21' W 127°53'3182.1
2018-Feb-23 01:00N 51°18' W 127°54'3 6.4 270 / 71029.7 3.4-1.8
2018-Feb-23 00:29N 51°15' W 127°52'611.4
2018-Feb-23 00:00N 51°09' W 127°52'3216.4
2018-Feb-23 00:00N 51°12' W 127°54'817.4 290 / 71029.9 4.0-3.3
2018-Feb-22 23:30N 51°04' W 127°50'611.5
2018-Feb-22 23:00N 50°59' W 127°46'5368.7
2018-Feb-22 23:00N 50°54' W 127°48'4 9.2 270 / 41030.3 3.9-1.1
2018-Feb-22 22:30N 50°58' W 127°44'0 0.5
2018-Feb-22 22:00N 50°58' W 127°44'4305.9
2018-Feb-22 22:00N 50°54' W 127°42'4 8.4 1030.6 5.1-1.4
2018-Feb-22 21:30N 50°58' W 127°43'4 7.5
2018-Feb-22 21:00N 50°55' W 127°39'2160.5
2018-Feb-22 21:00N 50°54' W 127°42'4 8.7 100 / 31030.8 3.9-1.6
2018-Feb-22 20:30N 50°52' W 127°36'0 0.7
2018-Feb-22 20:00N 50°52' W 127°36'2178.1
2018-Feb-22 20:00N 50°54' W 127°36'612.4 080 / 41031.1 3.6-0.5
2018-Feb-22 19:30N 50°48' W 127°33'5 9.2
2018-Feb-22 19:00N 50°45' W 127°28'3227.4
2018-Feb-22 19:00N 50°48' W 127°30'5 8.6 120 / 21031.0 3.6-1.0
2018-Feb-22 18:27N 50°43' W 127°29'1 3.1
2018-Feb-22 18:00N 50°42' W 127°30'1 9.9 180 / 21030.7 1.2-1.9
2018-Feb-22 17:51N 50°43' W 127°29'0 0.0
2018-Feb-22 17:27N 50°43' W 127°29'1 3.1
2018-Feb-22 17:00N 50°42' W 127°30'132.2 180 / 31030.4 -1.6-3.2
2018-Feb-22 16:57N 50°43' W 127°29'1 1.5
2018-Feb-22 16:00N 50°42' W 127°30'2 4.8 200 / 41029.6 -1.7-3.8
2018-Feb-22 15:39N 50°43' W 127°29'2 2.5
2018-Feb-22 15:00N 50°42' W 127°30'0 0.0 200 / 51029.1 -2.1-3.4
2018-Feb-22 14:00N 50°42' W 127°30'2 1.8 200 / 51028.8 -1.8-3.2
2018-Feb-22 13:03N 50°43' W 127°29'229.7
2018-Feb-22 13:00N 50°42' W 127°30'0 0.0 180 / 31028.3 -1.3-3.1
2018-Feb-22 12:00N 50°42' W 127°30'0 0.0 190 / 41028.1 -0.9-2.8
2018-Feb-22 11:00N 50°42' W 127°30'0 0.0 200 / 41028.0 -0.3-2.3
2018-Feb-22 10:00N 50°42' W 127°30'0 0.0 200 / 31027.7 0.1-2.1
2018-Feb-22 09:00N 50°42' W 127°30'0 0.0 210 / 51027.4 0.8-2.1
2018-Feb-22 08:00N 50°42' W 127°30'0 0.0 260 / 41026.7 1.9-2.4
2018-Feb-22 07:00N 50°42' W 127°30'213.0 290 / 61026.0 2.1-1.8
2018-Feb-22 06:52N 50°43' W 127°29'0 0.0
2018-Feb-22 06:16N 50°43' W 127°29'2 6.0
2018-Feb-22 06:00N 50°42' W 127°30'260.3 300 / 51025.4 2.6-1.5
2018-Feb-22 05:58N 50°43' W 127°29'2 1.7
2018-Feb-22 05:00N 50°42' W 127°30'0 0.0 320 / 91024.6 2.9-1.0
2018-Feb-22 04:00N 50°42' W 127°30'2 3.1 320 / 151023.7 2.9-1.2
2018-Feb-22 03:28N 50°43' W 127°29'2 3.4
2018-Feb-22 03:00N 50°42' W 127°30'2 3.8 340 / 141023.7 3.1-1.1
2018-Feb-22 02:34N 50°43' W 127°29'0 0.2
2018-Feb-22 02:29N 50°43' W 127°29'0 0.5
2018-Feb-22 01:49N 50°43' W 127°29'0 0.0
2018-Feb-22 01:25N 50°43' W 127°29'0 0.0
2018-Feb-22 00:55N 50°43' W 127°29'0 0.0
2018-Feb-22 00:25N 50°43' W 127°29'1 3.4
2018-Feb-22 00:00N 50°42' W 127°30'118.6 020 / 111023.3 3.2 1.2
2018-Feb-21 23:55N 50°43' W 127°29'0 0.0
2018-Feb-21 23:25N 50°43' W 127°29'0 0.0
2018-Feb-21 22:55N 50°43' W 127°29'0 0.0
2018-Feb-21 22:25N 50°43' W 127°29'0 0.0
2018-Feb-21 21:43N 50°43' W 127°29'0 0.0
2018-Feb-21 21:25N 50°43' W 127°29'0 0.0
2018-Feb-21 20:55N 50°43' W 127°29'0 0.0
2018-Feb-21 20:25N 50°43' W 127°29'0 0.0
2018-Feb-21 19:55N 50°43' W 127°29'0 0.0
2018-Feb-21 19:07N 50°43' W 127°29'1 1.3
2018-Feb-21 18:00N 50°42' W 127°30'1 0.3 160 / 31027.2 1.0-2.5
2018-Feb-21 13:25N 50°43' W 127°29'0 0.0
2018-Feb-21 12:49N 50°43' W 127°29'0 0.0
2018-Feb-21 12:13N 50°43' W 127°29'1 6.4
2018-Feb-21 12:00N 50°42' W 127°30'118.5 200 / 31026.5 -1.2-3.4
2018-Feb-21 11:55N 50°43' W 127°29'0 0.0
2018-Feb-21 10:19N 50°43' W 127°29'0 0.0
2018-Feb-21 09:13N 50°43' W 127°29'0 0.0
2018-Feb-21 08:55N 50°43' W 127°29'0 0.0
2018-Feb-21 08:25N 50°43' W 127°29'0 0.0
2018-Feb-21 07:55N 50°43' W 127°29'0 0.0
2018-Feb-21 07:25N 50°43' W 127°29'0 0.0
2018-Feb-21 06:55N 50°43' W 127°29'0 0.0
2018-Feb-21 06:25N 50°43' W 127°29'1 3.4
2018-Feb-21 06:00N 50°42' W 127°30'118.5 180 / 41027.5 -2.0-3.6
2018-Feb-21 05:55N 50°43' W 127°29'0 0.0
2018-Feb-21 05:25N 50°43' W 127°29'0 0.0
2018-Feb-21 04:49N 50°43' W 127°29'0 0.0
2018-Feb-21 04:25N 50°43' W 127°29'0 0.0
2018-Feb-21 03:55N 50°43' W 127°29'0 0.0
2018-Feb-21 03:25N 50°43' W 127°29'0 0.0
2018-Feb-21 02:49N 50°43' W 127°29'0 0.0
2018-Feb-21 02:25N 50°43' W 127°29'0 0.0
2018-Feb-21 01:49N 50°43' W 127°29'0 0.0
2018-Feb-21 01:19N 50°43' W 127°29'0 0.0
2018-Feb-21 00:55N 50°43' W 127°29'0 0.0
2018-Feb-21 00:25N 50°43' W 127°29'1 3.4
2018-Feb-21 00:00N 50°42' W 127°30'118.6 010 / 41025.0 3.0-6.3
2018-Feb-20 23:55N 50°43' W 127°29'0 0.0
2018-Feb-20 23:25N 50°43' W 127°29'0 0.0
2018-Feb-20 22:55N 50°43' W 127°29'0 0.0
2018-Feb-20 22:19N 50°43' W 127°29'0 0.0
2018-Feb-20 21:55N 50°43' W 127°29'0 0.0
2018-Feb-20 21:25N 50°43' W 127°29'0 0.0
2018-Feb-20 20:55N 50°43' W 127°29'1 1.4
2018-Feb-20 20:27N 50°44' W 127°28'2 4.1
2018-Feb-20 20:00N 50°42' W 127°30'238.7 140 / 11025.0 2.3-4.3
2018-Feb-20 19:56N 50°43' W 127°28'0 0.0
2018-Feb-20 19:02N 50°43' W 127°28'242.1
2018-Feb-20 19:00N 50°42' W 127°30'238.7 100 / 21024.8 1.0-4.0
2018-Feb-20 18:56N 50°43' W 127°28'0 0.0
2018-Feb-20 18:08N 50°43' W 127°28'213.7
2018-Feb-20 18:00N 50°42' W 127°30'213.3 060 / 31024.2 0.5-3.9
2018-Feb-20 17:50N 50°43' W 127°28'0 0.0
2018-Feb-20 17:18N 50°43' W 127°28'1 3.8
2018-Feb-20 17:00N 50°44' W 127°28'3176.7
2018-Feb-20 17:00N 50°42' W 127°30'715.1 070 / 91023.9 0.8-3.7
2018-Feb-20 16:30N 50°49' W 127°26'510.9
2018-Feb-20 16:00N 50°52' W 127°33'3173.8
2018-Feb-20 16:00N 50°54' W 127°36'3 6.1 070 / 101023.4 0.4-4.5
2018-Feb-20 15:30N 50°55' W 127°40'611.3
2018-Feb-20 15:00N 50°59' W 127°47'5309.0
2018-Feb-20 15:00N 50°54' W 127°48'919.1 090 / 101022.1 0.9-4.4
2018-Feb-20 14:30N 51°02' W 127°54'611.7
2018-Feb-20 14:00N 51°06' W 128°01'156.5
2018-Feb-20 14:00N 51°06' W 128°00'713.9 080 / 111021.7 1.0-3.6
2018-Feb-20 13:30N 51°10' W 128°09'612.1
2018-Feb-20 13:00N 51°14' W 128°16'3160.4
2018-Feb-20 13:00N 51°12' W 128°18'816.5 090 / 131021.8 1.3-2.6
2018-Feb-20 12:30N 51°20' W 128°19'612.8
2018-Feb-20 12:00N 51°26' W 128°22'2152.6
2018-Feb-20 12:00N 51°24' W 128°24'816.9 100 / 111021.7 1.3-4.0
2018-Feb-20 11:30N 51°32' W 128°25'612.4
2018-Feb-20 11:00N 51°38' W 128°28'2154.2
2018-Feb-20 11:00N 51°36' W 128°30'816.4 090 / 71021.8 1.4-4.4
2018-Feb-20 10:30N 51°44' W 128°31'612.6
2018-Feb-20 10:00N 51°50' W 128°35'2209.4
2018-Feb-20 10:00N 51°48' W 128°36'815.9 080 / 121021.8 0.7-5.1
2018-Feb-20 09:30N 51°56' W 128°38'612.2
2018-Feb-20 09:00N 52°01' W 128°41'195.0
2018-Feb-20 09:00N 52°00' W 128°42'715.0 080 / 101021.9 0.9-5.6
2018-Feb-20 08:30N 52°07' W 128°44'612.1
2018-Feb-20 08:00N 52°13' W 128°48'173.9
2018-Feb-20 08:00N 52°12' W 128°48'714.0 080 / 91022.1 1.1-6.3
2018-Feb-20 07:30N 52°19' W 128°49'510.3
2018-Feb-20 07:00N 52°24' W 128°48'286.2 090 / 91022.3 0.7-7.0
2018-Feb-20 06:58N 52°24' W 128°51'5 9.1
2018-Feb-20 06:26N 52°29' W 128°52'1 3.1
2018-Feb-20 06:00N 52°30' W 128°54'426.9 090 / 81022.4 0.7-7.7
2018-Feb-20 05:50N 52°34' W 128°54'8 9.2
2018-Feb-20 05:00N 52°42' W 128°54'1212.4 090 / 91022.3 0.6-7.0
2018-Feb-20 04:00N 52°48' W 129°12'9 9.4 080 / 61022.1 0.9-7.0
2018-Feb-20 03:00N 52°54' W 129°24'1414.0 050 / 61022.2 0.1-6.4
2018-Feb-20 02:00N 53°06' W 129°36'0 0.0 170 / 31022.2 -0.3-5.9
2018-Feb-20 01:00N 53°06' W 129°36'0 0.0 040 / 31022.2 -0.0-6.1
2018-Feb-20 00:00N 53°06' W 129°36'0 0.0 070 / 31022.9 -0.0-7.3
2018-Feb-19 23:00N 53°06' W 129°36'1414.0 070 / 91023.3 -0.9-8.6
2018-Feb-19 22:00N 53°18' W 129°24'7 7.0 070 / 101024.2 -1.5-8.5
2018-Feb-19 21:00N 53°24' W 129°18'0 0.0 360 / 81024.9 -2.9-9.6
2018-Feb-19 20:00N 53°24' W 129°18'0 0.0 360 / 101025.7 -3.3-10.4
2018-Feb-19 19:00N 53°24' W 129°18'0 0.0 010 / 91026.1 -3.6-10.4
2018-Feb-19 18:00N 53°24' W 129°18'0 0.0 350 / 101026.4 -3.8-11.1
2018-Feb-19 17:00N 53°24' W 129°18'0 0.0 350 / 101026.5 -4.0-10.2
2018-Feb-19 16:00N 53°24' W 129°18'0 0.0 350 / 91026.8 -4.1-10.3
2018-Feb-19 15:00N 53°24' W 129°18'0 0.0 020 / 111027.2 -4.0-10.9
2018-Feb-19 14:00N 53°24' W 129°18'0 0.0 020 / 91027.7 -3.8-11.5
2018-Feb-19 13:00N 53°24' W 129°18'0 0.0 010 / 121027.4 -3.8-11.6
2018-Feb-19 12:00N 53°24' W 129°18'0 0.0 360 / 91027.8 -3.5-12.1
2018-Feb-19 11:00N 53°24' W 129°18'0 0.0 360 / 91028.2 -3.3-11.8
2018-Feb-19 10:00N 53°24' W 129°18'0 0.0 010 / 81028.7 -3.2-11.9
2018-Feb-19 09:00N 53°24' W 129°18'0 0.0 360 / 81028.7 -2.8-11.6
2018-Feb-19 08:00N 53°24' W 129°18'0 0.0 350 / 91028.7 -2.6-11.2
2018-Feb-19 07:00N 53°24' W 129°18'0 0.0 350 / 111028.9 -2.1-11.6
2018-Feb-19 06:00N 53°24' W 129°18'0 0.0 350 / 101028.8 -1.7-12.1
2018-Feb-19 05:00N 53°24' W 129°18'0 0.0 340 / 111029.0 -1.4-12.6
2018-Feb-19 04:00N 53°24' W 129°18'0 0.0 360 / 121028.9 -0.9-13.0
2018-Feb-19 03:00N 53°24' W 129°18'0 0.0 350 / 121028.6 -0.8-13.5
2018-Feb-19 02:00N 53°24' W 129°18'0 0.0 350 / 131028.4 -0.5-13.7
2018-Feb-19 01:00N 53°24' W 129°18'0 0.0 010 / 131027.9 -0.3-14.1
2018-Feb-19 00:00N 53°24' W 129°18'0 0.0 010 / 101028.0 0.3-14.6
2018-Feb-18 23:00N 53°24' W 129°18'0 0.0 360 / 161027.9 0.1-14.7
2018-Feb-18 22:00N 53°24' W 129°18'0 0.0 010 / 141028.3 -0.1-15.7
2018-Feb-18 21:00N 53°24' W 129°18'0 0.0 020 / 161028.9 -0.3-16.1
2018-Feb-18 20:00N 53°24' W 129°18'0 0.0 360 / 151028.8 -0.5-15.4
2018-Feb-18 19:00N 53°24' W 129°18'0 0.0 360 / 141028.4 -0.7-15.7
2018-Feb-18 18:00N 53°24' W 129°18'0 0.0 360 / 171028.3 -1.0-15.3
2018-Feb-18 17:00N 53°24' W 129°18'0 0.0 360 / 151027.8 -1.9-14.8
2018-Feb-18 16:00N 53°24' W 129°18'0 0.0 360 / 181027.0 -1.9-14.6
2018-Feb-18 15:00N 53°24' W 129°18'0 0.0 360 / 201026.3 -1.7-14.4
2018-Feb-18 14:00N 53°24' W 129°18'0 0.0 360 / 191025.4 -1.5-14.1
2018-Feb-18 13:00N 53°24' W 129°18'0 0.0 360 / 181024.7 -1.4-13.7
2018-Feb-18 12:00N 53°24' W 129°18'0 0.0 350 / 221023.7 -1.3-13.8
2018-Feb-18 11:00N 53°24' W 129°18'0 0.0 010 / 181022.7 -1.0-13.8
2018-Feb-18 10:00N 53°24' W 129°18'0 0.0 360 / 191022.1 -0.9-13.7
2018-Feb-18 09:00N 53°24' W 129°18'0 0.0 350 / 181021.3 -0.7-13.7
2018-Feb-18 08:00N 53°24' W 129°18'0 0.0 360 / 171020.3 -0.5-13.1
2018-Feb-18 07:00N 53°24' W 129°18'0 0.0 350 / 221019.3 -0.3-12.5
2018-Feb-18 06:00N 53°24' W 129°18'0 0.0 350 / 211018.8 -0.1-12.6
2018-Feb-18 05:00N 53°24' W 129°18'0 0.0 350 / 211017.7 0.2-12.3
2018-Feb-18 00:00N 53°24' W 129°18'0 0.0 350 / 251011.4 1.5-8.8
2018-Feb-17 18:00N 53°24' W 129°18'0 0.0 350 / 191008.6 2.5-5.3
2018-Feb-17 12:00N 53°24' W 129°18'0 0.0 360 / 111010.7 1.7-0.6
2018-Feb-17 07:00N 53°24' W 129°18'0 0.0 350 / 61017.2 1.9 0.4
2018-Feb-17 06:00N 53°24' W 129°18'0 0.0 340 / 61018.5 2.0 0.8
2018-Feb-17 05:00N 53°24' W 129°18'0 0.0 320 / 61019.6 2.0 1.0
2018-Feb-17 04:00N 53°24' W 129°18'0 0.0 340 / 41020.5 1.8 1.4
2018-Feb-17 03:00N 53°24' W 129°18'0 0.0 310 / 31021.1 2.2 1.2
2018-Feb-17 02:00N 53°24' W 129°18'0 0.0 360 / 11021.8 2.2 1.5
2018-Feb-17 01:00N 53°24' W 129°18'0 0.0 330 / 11021.9 2.4 1.6
2018-Feb-17 00:00N 53°24' W 129°18'0 0.0 350 / 41022.5 3.2 1.0
2018-Feb-16 23:00N 53°24' W 129°18'0 0.0 310 / 21023.6 3.4 1.1
2018-Feb-16 22:00N 53°24' W 129°18'0 0.0 320 / 41023.9 3.5 1.4
2018-Feb-16 21:00N 53°24' W 129°18'0 0.0 340 / 21024.1 3.2 0.7
2018-Feb-16 20:00N 53°24' W 129°18'0 0.0 320 / 31023.7 3.4 1.3
2018-Feb-16 19:00N 53°24' W 129°18'0 0.0 030 / 11023.8 2.9 1.7
2018-Feb-16 18:00N 53°24' W 129°18'0 0.0 070 / 21023.4 2.2 1.3
2018-Feb-16 17:00N 53°24' W 129°18'0 0.0 010 / 11023.4 1.0 0.8
2018-Feb-16 16:00N 53°24' W 129°18'1212.0 010 / 41022.9 1.9 0.9
2018-Feb-16 15:00N 53°12' W 129°18'7 7.2 110 / 31022.0 3.0 1.7
2018-Feb-16 14:00N 53°12' W 129°30'9 9.4 350 / 61021.3 4.2 2.0
2018-Feb-16 13:00N 53°18' W 129°42'9 9.3 330 / 131021.4 5.5 2.3
2018-Feb-16 12:00N 53°24' W 129°54'9 9.3 300 / 151021.0 5.2 2.7
2018-Feb-16 11:00N 53°30' W 130°06'9 9.3 290 / 141020.6 4.8 3.2
2018-Feb-16 10:00N 53°36' W 130°18'9 9.3 310 / 121020.4 4.3 2.9
2018-Feb-16 09:00N 53°42' W 130°30'214.5 290 / 171020.2 5.8 3.4
2018-Feb-16 08:52N 53°40' W 130°30'8 9.5
2018-Feb-16 08:04N 53°46' W 130°40'340.1
2018-Feb-16 08:00N 53°48' W 130°42'265.4 280 / 171020.2 5.6 3.2
2018-Feb-16 07:58N 53°46' W 130°41'4 9.3
2018-Feb-16 07:30N 53°49' W 130°46'611.6
2018-Feb-16 07:00N 53°53' W 130°53'612.1
2018-Feb-16 06:30N 53°58' W 130°60'612.6
2018-Feb-16 06:01N 54°03' W 131°07'3153.5
2018-Feb-16 06:00N 54°00' W 131°06'918.2 260 / 151020.2 5.0 3.2
2018-Feb-16 05:30N 54°08' W 131°14'713.8
2018-Feb-16 05:00N 54°13' W 131°21'2143.4
2018-Feb-16 05:00N 54°12' W 131°24'611.7 250 / 161020.1 4.7 3.4
2018-Feb-16 04:30N 54°16' W 131°30'713.7
2018-Feb-16 04:00N 54°18' W 131°42'1414.0 250 / 141020.4 5.2 3.6
2018-Feb-16 03:00N 54°18' W 132°06'1110.5 260 / 141020.6 5.2 3.6
2018-Feb-16 02:00N 54°18' W 132°24'1110.5 270 / 131020.5 4.9 2.8
2018-Feb-16 01:00N 54°18' W 132°42'1414.0 270 / 151020.5 5.0 3.4
2018-Feb-16 00:00N 54°18' W 133°06'4 3.5 250 / 141020.5 5.1 3.1
2018-Feb-15 23:00N 54°18' W 133°00'0 0.0 280 / 151020.6 4.7 3.2
2018-Feb-15 22:00N 54°18' W 133°00'0 0.0 260 / 171021.6 5.1 3.2
2018-Feb-15 21:00N 54°18' W 133°00'0 0.0 250 / 151022.1 4.7 3.2
2018-Feb-15 20:00N 54°18' W 133°00'0 0.0 230 / 81022.4 4.7 3.1
2018-Feb-15 19:00N 54°18' W 133°00'0 0.0 230 / 91022.9 4.4 3.4
2018-Feb-15 18:00N 54°18' W 133°00'0 0.0 280 / 71023.4 4.6 2.8
2018-Feb-15 17:00N 54°18' W 133°00'0 0.0 240 / 101023.9 5.3 2.5
2018-Feb-15 16:00N 54°18' W 133°00'4 3.5 210 / 61024.0 4.8 3.0
2018-Feb-15 15:00N 54°18' W 132°54'7 7.0 200 / 91024.8 4.5 2.6
2018-Feb-15 14:00N 54°18' W 132°42'7 7.0 220 / 121025.5 4.5 2.6
2018-Feb-15 13:00N 54°18' W 132°30'1110.5 200 / 101026.0 4.2 2.6
2018-Feb-15 12:00N 54°18' W 132°12'1110.5 200 / 71026.6 3.9 1.6
2018-Feb-15 11:00N 54°18' W 131°54'2 4.1 190 / 41026.9 4.6 1.2
2018-Feb-15 10:29N 54°16' W 131°52'612.2
2018-Feb-15 10:00N 54°18' W 131°42'220.5 100 / 41027.1 4.4-0.1
2018-Feb-15 09:54N 54°16' W 131°43'4 8.7
2018-Feb-15 09:30N 54°16' W 131°37'4 8.7
2018-Feb-15 09:00N 54°16' W 131°30'2108.5
2018-Feb-15 09:00N 54°18' W 131°30'511.2 080 / 41027.5 4.0-0.2
2018-Feb-15 08:30N 54°14' W 131°23'5 9.7
2018-Feb-15 08:00N 54°10' W 131°20'3711.3
2018-Feb-15 08:00N 54°12' W 131°18'714.9 040 / 51027.6 4.7-0.0
2018-Feb-15 07:30N 54°05' W 131°20'5 9.7
2018-Feb-15 07:00N 54°00' W 131°20'6418.8
2018-Feb-15 07:00N 53°54' W 131°18'2 3.2 300 / 31027.9 5.1-0.9
2018-Feb-15 06:30N 53°55' W 131°20'714.0
2018-Feb-15 06:00N 53°48' W 131°18'21242.3 320 / 101027.7 5.1 0.6
2018-Feb-15 05:59N 53°50' W 131°20'5 9.8
2018-Feb-15 05:30N 53°45' W 131°20'5 9.0
2018-Feb-15 05:00N 53°41' W 131°23'1349.0
2018-Feb-15 05:00N 53°42' W 131°24'9 9.3 340 / 101027.9 5.0 1.6
2018-Feb-15 04:00N 53°36' W 131°36'9 9.3 340 / 111028.1 4.8 1.4
2018-Feb-15 03:00N 53°30' W 131°48'7 7.0 360 / 111027.8 5.1 2.3
2018-Feb-15 02:00N 53°24' W 131°54'0 0.0 360 / 91027.1 5.7 2.1
2018-Feb-15 01:00N 53°24' W 131°54'0 0.0 340 / 101026.4 7.0 0.6
2018-Feb-15 00:00N 53°24' W 131°54'1616.1 350 / 111025.9 6.5 2.1
2018-Feb-14 23:00N 53°36' W 131°36'910.9 360 / 191025.4 6.0 2.1
2018-Feb-14 22:11N 53°40' W 131°23'212.4
2018-Feb-14 22:00N 53°42' W 131°20'1176.9
2018-Feb-14 22:00N 53°42' W 131°18'510.6 350 / 181025.0 5.3 1.9
2018-Feb-14 21:30N 53°46' W 131°13'612.5
2018-Feb-14 21:00N 53°51' W 131°06'3182.8
2018-Feb-14 21:00N 53°48' W 131°06'817.2 340 / 191024.4 4.7 1.0
2018-Feb-14 20:30N 53°55' W 130°58'611.9
2018-Feb-14 20:00N 53°58' W 130°50'5282.2
2018-Feb-14 20:00N 53°54' W 130°48'919.5 340 / 181023.8 4.6 1.9
2018-Feb-14 19:30N 54°03' W 130°44'510.2
2018-Feb-14 19:00N 54°03' W 130°35'3165.8
2018-Feb-14 19:00N 54°00' W 130°36'510.8 330 / 91023.3 4.3 1.5
2018-Feb-14 18:29N 54°04' W 130°30'2 3.4
2018-Feb-14 18:00N 54°06' W 130°30'2864.1 330 / 81022.6 4.5 1.8
2018-Feb-14 17:59N 54°04' W 130°30'0 0.1
2018-Feb-14 17:29N 54°04' W 130°30'2 3.4
2018-Feb-14 17:00N 54°06' W 130°30'2761.2 340 / 91022.0 4.6 1.9
2018-Feb-14 16:59N 54°04' W 130°30'0 0.1
2018-Feb-14 16:29N 54°04' W 130°30'2 3.4
2018-Feb-14 16:00N 54°06' W 130°30'2864.1 330 / 61021.9 4.8 2.5
2018-Feb-14 15:59N 54°04' W 130°30'0 0.1
2018-Feb-14 15:26N 54°04' W 130°30'2 3.8
2018-Feb-14 15:00N 54°06' W 130°30'2866.9 350 / 31021.2 4.0 2.9
2018-Feb-14 14:59N 54°04' W 130°30'0 0.0
2018-Feb-14 14:29N 54°04' W 130°30'2 3.3
2018-Feb-14 14:00N 54°06' W 130°30'2857.8 1020.8 3.8 3.6
2018-Feb-14 13:59N 54°04' W 130°30'0 0.0
2018-Feb-14 13:29N 54°04' W 130°30'2 3.3
2018-Feb-14 13:00N 54°06' W 130°30'2857.8 090 / 11019.4 3.1 3.0
2018-Feb-14 12:59N 54°04' W 130°30'0 0.0
2018-Feb-14 12:29N 54°04' W 130°30'2 3.4
2018-Feb-14 12:00N 54°06' W 130°30'2857.8 180 / 11018.9 3.4 3.3
2018-Feb-14 11:59N 54°04' W 130°30'0 0.0
2018-Feb-14 11:29N 54°04' W 130°30'2 3.3
2018-Feb-14 11:00N 54°06' W 130°30'2860.8 1018.1 3.0 2.9
2018-Feb-14 10:59N 54°04' W 130°30'0 0.0
2018-Feb-14 10:29N 54°04' W 130°30'2 3.4
2018-Feb-14 10:00N 54°06' W 130°30'2860.8 150 / 11017.4 3.3 3.1
2018-Feb-14 09:59N 54°04' W 130°30'0 0.0
2018-Feb-14 09:26N 54°04' W 130°30'2 3.7
2018-Feb-14 09:00N 54°06' W 130°30'2747.9 120 / 41016.6 2.6 2.4
2018-Feb-14 08:59N 54°04' W 130°30'0 0.0
2018-Feb-14 08:29N 54°04' W 130°30'2 3.4
2018-Feb-14 08:00N 54°06' W 130°30'2997.4 190 / 11015.8 3.8 3.1
2018-Feb-14 07:59N 54°04' W 130°30'0 0.0
2018-Feb-14 07:26N 54°04' W 130°30'2 3.7
2018-Feb-14 07:00N 54°06' W 130°30'22022.8 140 / 31015.1 4.4 3.5
2018-Feb-14 06:59N 54°04' W 130°30'0 0.1
2018-Feb-14 06:29N 54°04' W 130°30'2 3.3
2018-Feb-14 06:00N 54°06' W 130°30'25963.1 260 / 61014.8 5.3 3.1
2018-Feb-14 05:59N 54°04' W 130°30'0 0.0
2018-Feb-14 05:29N 54°04' W 130°30'2 3.3
2018-Feb-14 05:00N 54°06' W 130°30'21008.1 310 / 71014.4 5.2 3.0
2018-Feb-14 04:59N 54°04' W 130°30'0 0.0
2018-Feb-14 04:29N 54°04' W 130°30'2 3.3
2018-Feb-14 04:00N 54°06' W 130°30'2854.9 280 / 81013.6 5.4 3.3
2018-Feb-14 03:59N 54°04' W 130°30'0 0.0
2018-Feb-14 03:29N 54°04' W 130°30'2 3.3
2018-Feb-14 03:00N 54°06' W 130°30'21196.9 270 / 111013.2 5.3 3.1
2018-Feb-14 02:59N 54°04' W 130°30'0 0.0
2018-Feb-14 02:29N 54°04' W 130°30'2 3.3
2018-Feb-14 02:00N 54°06' W 130°30'2750.7 290 / 121012.3 5.4 2.9
2018-Feb-14 01:59N 54°04' W 130°30'0 0.0
2018-Feb-14 01:29N 54°04' W 130°30'2 3.4
2018-Feb-14 01:00N 54°06' W 130°30'232.2 280 / 111011.9 5.5 3.1
2018-Feb-14 00:56N 54°04' W 130°30'0 0.0
2018-Feb-14 00:29N 54°04' W 130°30'2 3.3
2018-Feb-14 00:00N 54°06' W 130°30'25984.5 270 / 141011.2 5.7 2.5
2018-Feb-13 23:59N 54°04' W 130°30'0 0.0
2018-Feb-13 23:29N 54°04' W 130°30'  
Track history (hours):
 
Tides and Currents Weather Stations Pressure Air Temp Water Temp Dewpoint Dewpoint Depression Visibility Wind Speed Wind Dir Waves Ship Positions

Bartlett

Last reported at 2018-Feb-23 23:00 UTC. Time now 2018-Feb-24 02:29 UTC.
Position N 52°16' W 128°23'.

Length 57 m; beam 13.07 m; draft 3.8 m.

Type: Other ship. MMSI: 316182000.

Date/timePositionNaut miles runAvg speedWind from/ knotsBaromVisibWave heightAir tempDewpointWater temp
2018-Feb-23 23:00N 52°16' W 128°23'510.5
2018-Feb-23 22:29N 52°14' W 128°15'611.7
2018-Feb-23 22:00N 52°12' W 128°06'134.0 140 / 141015.9 3.9 3.0
2018-Feb-23 21:59N 52°12' W 128°07'2 4.2
2018-Feb-23 21:30N 52°10' W 128°08'3 6.6
2018-Feb-23 21:00N 52°07' W 128°08'2106.5
2018-Feb-23 21:00N 52°06' W 128°06'4 7.6 130 / 91017.2 3.8 3.2
2018-Feb-23 20:28N 52°05' W 127°60'4 9.7
2018-Feb-23 20:00N 52°01' W 127°56'2101.4
2018-Feb-23 20:00N 52°00' W 127°54'611.4 200 / 121018.4 3.8 2.6
2018-Feb-23 19:30N 51°55' W 127°56'612.5
2018-Feb-23 19:00N 51°48' W 127°56'178.9
2018-Feb-23 19:00N 51°48' W 127°54'612.3 160 / 221019.8 2.6 2.0
2018-Feb-23 18:30N 51°42' W 127°55'611.1
2018-Feb-23 18:00N 51°37' W 127°52'2114.9
2018-Feb-23 18:00N 51°36' W 127°54'2 4.1 170 / 51020.4 1.5 1.3
2018-Feb-23 17:30N 51°37' W 127°51'0 0.5
2018-Feb-23 17:00N 51°37' W 127°52'2115.5
2018-Feb-23 17:00N 51°36' W 127°54'4 8.6 190 / 171020.1 2.5 2.1
2018-Feb-23 16:30N 51°32' W 127°50'611.8
2018-Feb-23 16:00N 51°27' W 127°48'3186.6
2018-Feb-23 16:00N 51°24' W 127°48'2 2.6 150 / 281018.9 1.6 1.3
2018-Feb-23 15:12N 51°23' W 127°46'210.2
2018-Feb-23 15:00N 51°24' W 127°48'210.7 140 / 221019.7 0.3 0.3
2018-Feb-23 14:48N 51°23' W 127°46'0 0.0
2018-Feb-23 14:30N 51°23' W 127°46'0 0.0
2018-Feb-23 14:00N 51°23' W 127°46'0 0.0
2018-Feb-23 13:30N 51°23' W 127°46'0 0.0
2018-Feb-23 13:00N 51°23' W 127°46'0 0.0
2018-Feb-23 12:30N 51°23' W 127°46'0 0.0
2018-Feb-23 12:00N 51°23' W 127°46'2355.2
2018-Feb-23 12:00N 51°24' W 127°48'2 3.5 130 / 191023.1 2.2-1.2
2018-Feb-23 11:24N 51°23' W 127°46'0 0.0
2018-Feb-23 11:00N 51°23' W 127°46'0 0.0
2018-Feb-23 10:06N 51°23' W 127°46'0 0.4
2018-Feb-23 10:00N 51°23' W 127°46'0 0.0
2018-Feb-23 09:18N 51°23' W 127°46'0 0.0
2018-Feb-23 09:00N 51°23' W 127°46'0 0.0
2018-Feb-23 08:24N 51°23' W 127°46'0 0.0
2018-Feb-23 08:00N 51°23' W 127°46'0 0.1
2018-Feb-23 07:27N 51°23' W 127°46'0 0.0
2018-Feb-23 07:00N 51°23' W 127°46'0 0.0
2018-Feb-23 06:30N 51°23' W 127°46'0 0.0
2018-Feb-23 06:00N 51°23' W 127°46'2355.2
2018-Feb-23 06:00N 51°24' W 127°48'2 4.2 130 / 111028.9 2.4-1.9
2018-Feb-23 05:30N 51°23' W 127°46'0 0.1
2018-Feb-23 05:00N 51°23' W 127°46'0 0.0
2018-Feb-23 04:30N 51°23' W 127°46'0 0.1
2018-Feb-23 03:54N 51°23' W 127°46'0 0.1
2018-Feb-23 03:30N 51°23' W 127°46'0 0.0
2018-Feb-23 02:42N 51°23' W 127°46'0 0.0
2018-Feb-23 02:30N 51°23' W 127°46'0 0.0
2018-Feb-23 02:00N 51°23' W 127°46'2 3.1
2018-Feb-23 01:30N 51°24' W 127°47'5 9.2
2018-Feb-23 01:00N 51°21' W 127°53'3182.1
2018-Feb-23 01:00N 51°18' W 127°54'3 6.4 270 / 71029.7 3.4-1.8
2018-Feb-23 00:29N 51°15' W 127°52'611.4
2018-Feb-23 00:00N 51°09' W 127°52'3216.4
2018-Feb-23 00:00N 51°12' W 127°54'817.4 290 / 71029.9 4.0-3.3
2018-Feb-22 23:30N 51°04' W 127°50'611.5
2018-Feb-22 23:00N 50°59' W 127°46'5368.7
2018-Feb-22 23:00N 50°54' W 127°48'4 9.2 270 / 41030.3 3.9-1.1
2018-Feb-22 22:30N 50°58' W 127°44'0 0.5
2018-Feb-22 22:00N 50°58' W 127°44'4305.9
2018-Feb-22 22:00N 50°54' W 127°42'4 8.4 1030.6 5.1-1.4
2018-Feb-22 21:30N 50°58' W 127°43'4 7.5
2018-Feb-22 21:00N 50°55' W 127°39'2160.5
2018-Feb-22 21:00N 50°54' W 127°42'4 8.7 100 / 31030.8 3.9-1.6
2018-Feb-22 20:30N 50°52' W 127°36'0 0.7
2018-Feb-22 20:00N 50°52' W 127°36'2178.1
2018-Feb-22 20:00N 50°54' W 127°36'612.4 080 / 41031.1 3.6-0.5
2018-Feb-22 19:30N 50°48' W 127°33'5 9.2
2018-Feb-22 19:00N 50°45' W 127°28'3227.4
2018-Feb-22 19:00N 50°48' W 127°30'5 8.6 120 / 21031.0 3.6-1.0
2018-Feb-22 18:27N 50°43' W 127°29'1 3.1
2018-Feb-22 18:00N 50°42' W 127°30'1 9.9 180 / 21030.7 1.2-1.9
2018-Feb-22 17:51N 50°43' W 127°29'0 0.0
2018-Feb-22 17:27N 50°43' W 127°29'1 3.1
2018-Feb-22 17:00N 50°42' W 127°30'132.2 180 / 31030.4 -1.6-3.2
2018-Feb-22 16:57N 50°43' W 127°29'1 1.5
2018-Feb-22 16:00N 50°42' W 127°30'2 4.8 200 / 41029.6 -1.7-3.8
2018-Feb-22 15:39N 50°43' W 127°29'2 2.5
2018-Feb-22 15:00N 50°42' W 127°30'0 0.0 200 / 51029.1 -2.1-3.4
2018-Feb-22 14:00N 50°42' W 127°30'2 1.8 200 / 51028.8 -1.8-3.2
2018-Feb-22 13:03N 50°43' W 127°29'229.7
2018-Feb-22 13:00N 50°42' W 127°30'0 0.0 180 / 31028.3 -1.3-3.1
2018-Feb-22 12:00N 50°42' W 127°30'0 0.0 190 / 41028.1 -0.9-2.8
2018-Feb-22 11:00N 50°42' W 127°30'0 0.0 200 / 41028.0 -0.3-2.3
2018-Feb-22 10:00N 50°42' W 127°30'0 0.0 200 / 31027.7 0.1-2.1
2018-Feb-22 09:00N 50°42' W 127°30'0 0.0 210 / 51027.4 0.8-2.1
2018-Feb-22 08:00N 50°42' W 127°30'0 0.0 260 / 41026.7 1.9-2.4
2018-Feb-22 07:00N 50°42' W 127°30'213.0 290 / 61026.0 2.1-1.8
2018-Feb-22 06:52N 50°43' W 127°29'0 0.0
2018-Feb-22 06:16N 50°43' W 127°29'2 6.0
2018-Feb-22 06:00N 50°42' W 127°30'260.3 300 / 51025.4 2.6-1.5
2018-Feb-22 05:58N 50°43' W 127°29'2 1.7
2018-Feb-22 05:00N 50°42' W 127°30'0 0.0 320 / 91024.6 2.9-1.0
2018-Feb-22 04:00N 50°42' W 127°30'2 3.1 320 / 151023.7 2.9-1.2
2018-Feb-22 03:28N 50°43' W 127°29'2 3.4
2018-Feb-22 03:00N 50°42' W 127°30'2 3.8 340 / 141023.7 3.1-1.1
2018-Feb-22 02:34N 50°43' W 127°29'0 0.2
2018-Feb-22 02:29N 50°43' W 127°29'0 0.5
2018-Feb-22 01:49N 50°43' W 127°29'0 0.0
2018-Feb-22 01:25N 50°43' W 127°29'0 0.0
2018-Feb-22 00:55N 50°43' W 127°29'0 0.0
2018-Feb-22 00:25N 50°43' W 127°29'1 3.4
2018-Feb-22 00:00N 50°42' W 127°30'118.6 020 / 111023.3 3.2 1.2
2018-Feb-21 23:55N 50°43' W 127°29'0 0.0
2018-Feb-21 23:25N 50°43' W 127°29'0 0.0
2018-Feb-21 22:55N 50°43' W 127°29'0 0.0
2018-Feb-21 22:25N 50°43' W 127°29'0 0.0
2018-Feb-21 21:43N 50°43' W 127°29'0 0.0
2018-Feb-21 21:25N 50°43' W 127°29'0 0.0
2018-Feb-21 20:55N 50°43' W 127°29'0 0.0
2018-Feb-21 20:25N 50°43' W 127°29'0 0.0
2018-Feb-21 19:55N 50°43' W 127°29'0 0.0
2018-Feb-21 19:07N 50°43' W 127°29'1 1.3
2018-Feb-21 18:00N 50°42' W 127°30'1 0.3 160 / 31027.2 1.0-2.5
2018-Feb-21 13:25N 50°43' W 127°29'0 0.0
2018-Feb-21 12:49N 50°43' W 127°29'0 0.0
2018-Feb-21 12:13N 50°43' W 127°29'1 6.4
2018-Feb-21 12:00N 50°42' W 127°30'118.5 200 / 31026.5 -1.2-3.4
2018-Feb-21 11:55N 50°43' W 127°29'0 0.0
2018-Feb-21 10:19N 50°43' W 127°29'0 0.0
2018-Feb-21 09:13N 50°43' W 127°29'0 0.0
2018-Feb-21 08:55N 50°43' W 127°29'0 0.0
2018-Feb-21 08:25N 50°43' W 127°29'0 0.0
2018-Feb-21 07:55N 50°43' W 127°29'0 0.0
2018-Feb-21 07:25N 50°43' W 127°29'0 0.0
2018-Feb-21 06:55N 50°43' W 127°29'0 0.0
2018-Feb-21 06:25N 50°43' W 127°29'1 3.4
2018-Feb-21 06:00N 50°42' W 127°30'118.5 180 / 41027.5 -2.0-3.6
2018-Feb-21 05:55N 50°43' W 127°29'0 0.0
2018-Feb-21 05:25N 50°43' W 127°29'0 0.0
2018-Feb-21 04:49N 50°43' W 127°29'0 0.0
2018-Feb-21 04:25N 50°43' W 127°29'0 0.0
2018-Feb-21 03:55N 50°43' W 127°29'0 0.0
2018-Feb-21 03:25N 50°43' W 127°29'0 0.0
2018-Feb-21 02:49N 50°43' W 127°29'0 0.0
2018-Feb-21 02:25N 50°43' W 127°29'0 0.0
2018-Feb-21 01:49N 50°43' W 127°29'0 0.0
2018-Feb-21 01:19N 50°43' W 127°29'0 0.0
2018-Feb-21 00:55N 50°43' W 127°29'0 0.0
2018-Feb-21 00:25N 50°43' W 127°29'1 3.4
2018-Feb-21 00:00N 50°42' W 127°30'118.6 010 / 41025.0 3.0-6.3
2018-Feb-20 23:55N 50°43' W 127°29'0 0.0
2018-Feb-20 23:25N 50°43' W 127°29'0 0.0
2018-Feb-20 22:55N 50°43' W 127°29'0 0.0
2018-Feb-20 22:19N 50°43' W 127°29'0 0.0
2018-Feb-20 21:55N 50°43' W 127°29'0 0.0
2018-Feb-20 21:25N 50°43' W 127°29'0 0.0
2018-Feb-20 20:55N 50°43' W 127°29'1 1.4
2018-Feb-20 20:27N 50°44' W 127°28'2 4.1
2018-Feb-20 20:00N 50°42' W 127°30'238.7 140 / 11025.0 2.3-4.3
2018-Feb-20 19:56N 50°43' W 127°28'0 0.0
2018-Feb-20 19:02N 50°43' W 127°28'242.1
2018-Feb-20 19:00N 50°42' W 127°30'238.7 100 / 21024.8 1.0-4.0
2018-Feb-20 18:56N 50°43' W 127°28'0 0.0
2018-Feb-20 18:08N 50°43' W 127°28'213.7
2018-Feb-20 18:00N 50°42' W 127°30'213.3 060 / 31024.2 0.5-3.9
2018-Feb-20 17:50N 50°43' W 127°28'0 0.0
2018-Feb-20 17:18N 50°43' W 127°28'1 3.8
2018-Feb-20 17:00N 50°44' W 127°28'3176.7
2018-Feb-20 17:00N 50°42' W 127°30'715.1 070 / 91023.9 0.8-3.7
2018-Feb-20 16:30N 50°49' W 127°26'510.9
2018-Feb-20 16:00N 50°52' W 127°33'3173.8
2018-Feb-20 16:00N 50°54' W 127°36'3 6.1 070 / 101023.4 0.4-4.5
2018-Feb-20 15:30N 50°55' W 127°40'611.3
2018-Feb-20 15:00N 50°59' W 127°47'5309.0
2018-Feb-20 15:00N 50°54' W 127°48'919.1 090 / 101022.1 0.9-4.4
2018-Feb-20 14:30N 51°02' W 127°54'611.7
2018-Feb-20 14:00N 51°06' W 128°01'156.5
2018-Feb-20 14:00N 51°06' W 128°00'713.9 080 / 111021.7 1.0-3.6
2018-Feb-20 13:30N 51°10' W 128°09'612.1
2018-Feb-20 13:00N 51°14' W 128°16'3160.4
2018-Feb-20 13:00N 51°12' W 128°18'816.5 090 / 131021.8 1.3-2.6
2018-Feb-20 12:30N 51°20' W 128°19'612.8
2018-Feb-20 12:00N 51°26' W 128°22'2152.6
2018-Feb-20 12:00N 51°24' W 128°24'816.9 100 / 111021.7 1.3-4.0
2018-Feb-20 11:30N 51°32' W 128°25'612.4
2018-Feb-20 11:00N 51°38' W 128°28'2154.2
2018-Feb-20 11:00N 51°36' W 128°30'816.4 090 / 71021.8 1.4-4.4
2018-Feb-20 10:30N 51°44' W 128°31'612.6
2018-Feb-20 10:00N 51°50' W 128°35'2209.4
2018-Feb-20 10:00N 51°48' W 128°36'815.9 080 / 121021.8 0.7-5.1
2018-Feb-20 09:30N 51°56' W 128°38'612.2
2018-Feb-20 09:00N 52°01' W 128°41'195.0
2018-Feb-20 09:00N 52°00' W 128°42'715.0 080 / 101021.9 0.9-5.6
2018-Feb-20 08:30N 52°07' W 128°44'612.1
2018-Feb-20 08:00N 52°13' W 128°48'173.9
2018-Feb-20 08:00N 52°12' W 128°48'714.0 080 / 91022.1 1.1-6.3
2018-Feb-20 07:30N 52°19' W 128°49'510.3
2018-Feb-20 07:00N 52°24' W 128°48'286.2 090 / 91022.3 0.7-7.0
2018-Feb-20 06:58N 52°24' W 128°51'5 9.1
2018-Feb-20 06:26N 52°29' W 128°52'1 3.1
2018-Feb-20 06:00N 52°30' W 128°54'426.9 090 / 81022.4 0.7-7.7
2018-Feb-20 05:50N 52°34' W 128°54'8 9.2
2018-Feb-20 05:00N 52°42' W 128°54'1212.4 090 / 91022.3 0.6-7.0
2018-Feb-20 04:00N 52°48' W 129°12'9 9.4 080 / 61022.1 0.9-7.0
2018-Feb-20 03:00N 52°54' W 129°24'1414.0 050 / 61022.2 0.1-6.4
2018-Feb-20 02:00N 53°06' W 129°36'0 0.0 170 / 31022.2 -0.3-5.9
2018-Feb-20 01:00N 53°06' W 129°36'0 0.0 040 / 31022.2 -0.0-6.1
2018-Feb-20 00:00N 53°06' W 129°36'0 0.0 070 / 31022.9 -0.0-7.3
2018-Feb-19 23:00N 53°06' W 129°36'1414.0 070 / 91023.3 -0.9-8.6
2018-Feb-19 22:00N 53°18' W 129°24'7 7.0 070 / 101024.2 -1.5-8.5
2018-Feb-19 21:00N 53°24' W 129°18'0 0.0 360 / 81024.9 -2.9-9.6
2018-Feb-19 20:00N 53°24' W 129°18'0 0.0 360 / 101025.7 -3.3-10.4
2018-Feb-19 19:00N 53°24' W 129°18'0 0.0 010 / 91026.1 -3.6-10.4
2018-Feb-19 18:00N 53°24' W 129°18'0 0.0 350 / 101026.4 -3.8-11.1
2018-Feb-19 17:00N 53°24' W 129°18'0 0.0 350 / 101026.5 -4.0-10.2
2018-Feb-19 16:00N 53°24' W 129°18'0 0.0 350 / 91026.8 -4.1-10.3
2018-Feb-19 15:00N 53°24' W 129°18'0 0.0 020 / 111027.2 -4.0-10.9
2018-Feb-19 14:00N 53°24' W 129°18'0 0.0 020 / 91027.7 -3.8-11.5
2018-Feb-19 13:00N 53°24' W 129°18'0 0.0 010 / 121027.4 -3.8-11.6
2018-Feb-19 12:00N 53°24' W 129°18'0 0.0 360 / 91027.8 -3.5-12.1
2018-Feb-19 11:00N 53°24' W 129°18'0 0.0 360 / 91028.2 -3.3-11.8
2018-Feb-19 10:00N 53°24' W 129°18'0 0.0 010 / 81028.7 -3.2-11.9
2018-Feb-19 09:00N 53°24' W 129°18'0 0.0 360 / 81028.7 -2.8-11.6
2018-Feb-19 08:00N 53°24' W 129°18'0 0.0 350 / 91028.7 -2.6-11.2
2018-Feb-19 07:00N 53°24' W 129°18'0 0.0 350 / 111028.9 -2.1-11.6
2018-Feb-19 06:00N 53°24' W 129°18'0 0.0 350 / 101028.8 -1.7-12.1
2018-Feb-19 05:00N 53°24' W 129°18'0 0.0 340 / 111029.0 -1.4-12.6
2018-Feb-19 04:00N 53°24' W 129°18'0 0.0 360 / 121028.9 -0.9-13.0
2018-Feb-19 03:00N 53°24' W 129°18'0 0.0 350 / 121028.6 -0.8-13.5
2018-Feb-19 02:00N 53°24' W 129°18'0 0.0 350 / 131028.4 -0.5-13.7
2018-Feb-19 01:00N 53°24' W 129°18'0 0.0 010 / 131027.9 -0.3-14.1
2018-Feb-19 00:00N 53°24' W 129°18'0 0.0 010 / 101028.0 0.3-14.6
2018-Feb-18 23:00N 53°24' W 129°18'0 0.0 360 / 161027.9 0.1-14.7
2018-Feb-18 22:00N 53°24' W 129°18'0 0.0 010 / 141028.3 -0.1-15.7
2018-Feb-18 21:00N 53°24' W 129°18'0 0.0 020 / 161028.9 -0.3-16.1
2018-Feb-18 20:00N 53°24' W 129°18'0 0.0 360 / 151028.8 -0.5-15.4
2018-Feb-18 19:00N 53°24' W 129°18'0 0.0 360 / 141028.4 -0.7-15.7
2018-Feb-18 18:00N 53°24' W 129°18'0 0.0 360 / 171028.3 -1.0-15.3
2018-Feb-18 17:00N 53°24' W 129°18'0 0.0 360 / 151027.8 -1.9-14.8
2018-Feb-18 16:00N 53°24' W 129°18'0 0.0 360 / 181027.0 -1.9-14.6
2018-Feb-18 15:00N 53°24' W 129°18'0 0.0 360 / 201026.3 -1.7-14.4
2018-Feb-18 14:00N 53°24' W 129°18'0 0.0 360 / 191025.4 -1.5-14.1
2018-Feb-18 13:00N 53°24' W 129°18'0 0.0 360 / 181024.7 -1.4-13.7
2018-Feb-18 12:00N 53°24' W 129°18'0 0.0 350 / 221023.7 -1.3-13.8
2018-Feb-18 11:00N 53°24' W 129°18'0 0.0 010 / 181022.7 -1.0-13.8
2018-Feb-18 10:00N 53°24' W 129°18'0 0.0 360 / 191022.1 -0.9-13.7
2018-Feb-18 09:00N 53°24' W 129°18'0 0.0 350 / 181021.3 -0.7-13.7
2018-Feb-18 08:00N 53°24' W 129°18'0 0.0 360 / 171020.3 -0.5-13.1
2018-Feb-18 07:00N 53°24' W 129°18'0 0.0 350 / 221019.3 -0.3-12.5
2018-Feb-18 06:00N 53°24' W 129°18'0 0.0 350 / 211018.8 -0.1-12.6
2018-Feb-18 05:00N 53°24' W 129°18'0 0.0 350 / 211017.7 0.2-12.3
2018-Feb-18 00:00N 53°24' W 129°18'0 0.0 350 / 251011.4 1.5-8.8
2018-Feb-17 18:00N 53°24' W 129°18'0 0.0 350 / 191008.6 2.5-5.3
2018-Feb-17 12:00N 53°24' W 129°18'0 0.0 360 / 111010.7 1.7-0.6
2018-Feb-17 07:00N 53°24' W 129°18'0 0.0 350 / 61017.2 1.9 0.4
2018-Feb-17 06:00N 53°24' W 129°18'0 0.0 340 / 61018.5 2.0 0.8
2018-Feb-17 05:00N 53°24' W 129°18'0 0.0 320 / 61019.6 2.0 1.0
2018-Feb-17 04:00N 53°24' W 129°18'0 0.0 340 / 41020.5 1.8 1.4
2018-Feb-17 03:00N 53°24' W 129°18'0 0.0 310 / 31021.1 2.2 1.2
2018-Feb-17 02:00N 53°24' W 129°18'0 0.0 360 / 11021.8 2.2 1.5
2018-Feb-17 01:00N 53°24' W 129°18'0 0.0 330 / 11021.9 2.4 1.6
2018-Feb-17 00:00N 53°24' W 129°18'0 0.0 350 / 41022.5 3.2 1.0
2018-Feb-16 23:00N 53°24' W 129°18'0 0.0 310 / 21023.6 3.4 1.1
2018-Feb-16 22:00N 53°24' W 129°18'0 0.0 320 / 41023.9 3.5 1.4
2018-Feb-16 21:00N 53°24' W 129°18'0 0.0 340 / 21024.1 3.2 0.7
2018-Feb-16 20:00N 53°24' W 129°18'0 0.0 320 / 31023.7 3.4 1.3
2018-Feb-16 19:00N 53°24' W 129°18'0 0.0 030 / 11023.8 2.9 1.7
2018-Feb-16 18:00N 53°24' W 129°18'0 0.0 070 / 21023.4 2.2 1.3
2018-Feb-16 17:00N 53°24' W 129°18'0 0.0 010 / 11023.4 1.0 0.8
2018-Feb-16 16:00N 53°24' W 129°18'1212.0 010 / 41022.9 1.9 0.9
2018-Feb-16 15:00N 53°12' W 129°18'7 7.2 110 / 31022.0 3.0 1.7
2018-Feb-16 14:00N 53°12' W 129°30'9 9.4 350 / 61021.3 4.2 2.0
2018-Feb-16 13:00N 53°18' W 129°42'9 9.3 330 / 131021.4 5.5 2.3
2018-Feb-16 12:00N 53°24' W 129°54'9 9.3 300 / 151021.0 5.2 2.7
2018-Feb-16 11:00N 53°30' W 130°06'9 9.3 290 / 141020.6 4.8 3.2
2018-Feb-16 10:00N 53°36' W 130°18'9 9.3 310 / 121020.4 4.3 2.9
2018-Feb-16 09:00N 53°42' W 130°30'214.5 290 / 171020.2 5.8 3.4
2018-Feb-16 08:52N 53°40' W 130°30'8 9.5
2018-Feb-16 08:04N 53°46' W 130°40'340.1
2018-Feb-16 08:00N 53°48' W 130°42'265.4 280 / 171020.2 5.6 3.2
2018-Feb-16 07:58N 53°46' W 130°41'4 9.3
2018-Feb-16 07:30N 53°49' W 130°46'611.6
2018-Feb-16 07:00N 53°53' W 130°53'612.1
2018-Feb-16 06:30N 53°58' W 130°60'612.6
2018-Feb-16 06:01N 54°03' W 131°07'3153.5
2018-Feb-16 06:00N 54°00' W 131°06'918.2 260 / 151020.2 5.0 3.2
2018-Feb-16 05:30N 54°08' W 131°14'713.8
2018-Feb-16 05:00N 54°13' W 131°21'2143.4
2018-Feb-16 05:00N 54°12' W 131°24'611.7 250 / 161020.1 4.7 3.4
2018-Feb-16 04:30N 54°16' W 131°30'713.7
2018-Feb-16 04:00N 54°18' W 131°42'1414.0 250 / 141020.4 5.2 3.6
2018-Feb-16 03:00N 54°18' W 132°06'1110.5 260 / 141020.6 5.2 3.6
2018-Feb-16 02:00N 54°18' W 132°24'1110.5 270 / 131020.5 4.9 2.8
2018-Feb-16 01:00N 54°18' W 132°42'1414.0 270 / 151020.5 5.0 3.4
2018-Feb-16 00:00N 54°18' W 133°06'4 3.5 250 / 141020.5 5.1 3.1
2018-Feb-15 23:00N 54°18' W 133°00'0 0.0 280 / 151020.6 4.7 3.2
2018-Feb-15 22:00N 54°18' W 133°00'0 0.0 260 / 171021.6 5.1 3.2
2018-Feb-15 21:00N 54°18' W 133°00'0 0.0 250 / 151022.1 4.7 3.2
2018-Feb-15 20:00N 54°18' W 133°00'0 0.0 230 / 81022.4 4.7 3.1
2018-Feb-15 19:00N 54°18' W 133°00'0 0.0 230 / 91022.9 4.4 3.4
2018-Feb-15 18:00N 54°18' W 133°00'0 0.0 280 / 71023.4 4.6 2.8
2018-Feb-15 17:00N 54°18' W 133°00'0 0.0 240 / 101023.9 5.3 2.5
2018-Feb-15 16:00N 54°18' W 133°00'4 3.5 210 / 61024.0 4.8 3.0
2018-Feb-15 15:00N 54°18' W 132°54'7 7.0 200 / 91024.8 4.5 2.6
2018-Feb-15 14:00N 54°18' W 132°42'7 7.0 220 / 121025.5 4.5 2.6
2018-Feb-15 13:00N 54°18' W 132°30'1110.5 200 / 101026.0 4.2 2.6
2018-Feb-15 12:00N 54°18' W 132°12'1110.5 200 / 71026.6 3.9 1.6
2018-Feb-15 11:00N 54°18' W 131°54'2 4.1 190 / 41026.9 4.6 1.2
2018-Feb-15 10:29N 54°16' W 131°52'612.2
2018-Feb-15 10:00N 54°18' W 131°42'220.5 100 / 41027.1 4.4-0.1
2018-Feb-15 09:54N 54°16' W 131°43'4 8.7
2018-Feb-15 09:30N 54°16' W 131°37'4 8.7
2018-Feb-15 09:00N 54°16' W 131°30'2108.5
2018-Feb-15 09:00N 54°18' W 131°30'511.2 080 / 41027.5 4.0-0.2
2018-Feb-15 08:30N 54°14' W 131°23'5 9.7
2018-Feb-15 08:00N 54°10' W 131°20'3711.3
2018-Feb-15 08:00N 54°12' W 131°18'714.9 040 / 51027.6 4.7-0.0
2018-Feb-15 07:30N 54°05' W 131°20'5 9.7
2018-Feb-15 07:00N 54°00' W 131°20'6418.8
2018-Feb-15 07:00N 53°54' W 131°18'2 3.2 300 / 31027.9 5.1-0.9
2018-Feb-15 06:30N 53°55' W 131°20'714.0
2018-Feb-15 06:00N 53°48' W 131°18'21242.3 320 / 101027.7 5.1 0.6
2018-Feb-15 05:59N 53°50' W 131°20'5 9.8
2018-Feb-15 05:30N 53°45' W 131°20'5 9.0
2018-Feb-15 05:00N 53°41' W 131°23'1349.0
2018-Feb-15 05:00N 53°42' W 131°24'9 9.3 340 / 101027.9 5.0 1.6
2018-Feb-15 04:00N 53°36' W 131°36'9 9.3 340 / 111028.1 4.8 1.4
2018-Feb-15 03:00N 53°30' W 131°48'7 7.0 360 / 111027.8 5.1 2.3
2018-Feb-15 02:00N 53°24' W 131°54'0 0.0 360 / 91027.1 5.7 2.1
2018-Feb-15 01:00N 53°24' W 131°54'0 0.0 340 / 101026.4 7.0 0.6
2018-Feb-15 00:00N 53°24' W 131°54'1616.1 350 / 111025.9 6.5 2.1
2018-Feb-14 23:00N 53°36' W 131°36'910.9 360 / 191025.4 6.0 2.1
2018-Feb-14 22:11N 53°40' W 131°23'212.4
2018-Feb-14 22:00N 53°42' W 131°20'1176.9
2018-Feb-14 22:00N 53°42' W 131°18'510.6 350 / 181025.0 5.3 1.9
2018-Feb-14 21:30N 53°46' W 131°13'612.5
2018-Feb-14 21:00N 53°51' W 131°06'3182.8
2018-Feb-14 21:00N 53°48' W 131°06'817.2 340 / 191024.4 4.7 1.0
2018-Feb-14 20:30N 53°55' W 130°58'611.9
2018-Feb-14 20:00N 53°58' W 130°50'5282.2
2018-Feb-14 20:00N 53°54' W 130°48'919.5 340 / 181023.8 4.6 1.9
2018-Feb-14 19:30N 54°03' W 130°44'510.2
2018-Feb-14 19:00N 54°03' W 130°35'3165.8
2018-Feb-14 19:00N 54°00' W 130°36'510.8 330 / 91023.3 4.3 1.5
2018-Feb-14 18:29N 54°04' W 130°30'2 3.4
2018-Feb-14 18:00N 54°06' W 130°30'2864.1 330 / 81022.6 4.5 1.8
2018-Feb-14 17:59N 54°04' W 130°30'0 0.1
2018-Feb-14 17:29N 54°04' W 130°30'2 3.4
2018-Feb-14 17:00N 54°06' W 130°30'2761.2 340 / 91022.0 4.6 1.9
2018-Feb-14 16:59N 54°04' W 130°30'0 0.1
2018-Feb-14 16:29N 54°04' W 130°30'2 3.4
2018-Feb-14 16:00N 54°06' W 130°30'2864.1 330 / 61021.9 4.8 2.5
2018-Feb-14 15:59N 54°04' W 130°30'0 0.1
2018-Feb-14 15:26N 54°04' W 130°30'2 3.8
2018-Feb-14 15:00N 54°06' W 130°30'2866.9 350 / 31021.2 4.0 2.9
2018-Feb-14 14:59N 54°04' W 130°30'0 0.0
2018-Feb-14 14:29N 54°04' W 130°30'2 3.3
2018-Feb-14 14:00N 54°06' W 130°30'2857.8 1020.8 3.8 3.6
2018-Feb-14 13:59N 54°04' W 130°30'0 0.0
2018-Feb-14 13:29N 54°04' W 130°30'2 3.3
2018-Feb-14 13:00N 54°06' W 130°30'2857.8 090 / 11019.4 3.1 3.0
2018-Feb-14 12:59N 54°04' W 130°30'0 0.0
2018-Feb-14 12:29N 54°04' W 130°30'2 3.4
2018-Feb-14 12:00N 54°06' W 130°30'2857.8 180 / 11018.9 3.4 3.3
2018-Feb-14 11:59N 54°04' W 130°30'0 0.0
2018-Feb-14 11:29N 54°04' W 130°30'2 3.3
2018-Feb-14 11:00N 54°06' W 130°30'2860.8 1018.1 3.0 2.9
2018-Feb-14 10:59N 54°04' W 130°30'0 0.0
2018-Feb-14 10:29N 54°04' W 130°30'2 3.4
2018-Feb-14 10:00N 54°06' W 130°30'2860.8 150 / 11017.4 3.3 3.1
2018-Feb-14 09:59N 54°04' W 130°30'0 0.0
2018-Feb-14 09:26N 54°04' W 130°30'2 3.7
2018-Feb-14 09:00N 54°06' W 130°30'2747.9 120 / 41016.6 2.6 2.4
2018-Feb-14 08:59N 54°04' W 130°30'0 0.0
2018-Feb-14 08:29N 54°04' W 130°30'2 3.4
2018-Feb-14 08:00N 54°06' W 130°30'2997.4 190 / 11015.8 3.8 3.1
2018-Feb-14 07:59N 54°04' W 130°30'0 0.0
2018-Feb-14 07:26N 54°04' W 130°30'2 3.7
2018-Feb-14 07:00N 54°06' W 130°30'22022.8 140 / 31015.1 4.4 3.5
2018-Feb-14 06:59N 54°04' W 130°30'0 0.1
2018-Feb-14 06:29N 54°04' W 130°30'2 3.3
2018-Feb-14 06:00N 54°06' W 130°30'25963.1 260 / 61014.8 5.3 3.1
2018-Feb-14 05:59N 54°04' W 130°30'0 0.0
2018-Feb-14 05:29N 54°04' W 130°30'2 3.3
2018-Feb-14 05:00N 54°06' W 130°30'21008.1 310 / 71014.4 5.2 3.0
2018-Feb-14 04:59N 54°04' W 130°30'0 0.0
2018-Feb-14 04:29N 54°04' W 130°30'2 3.3
2018-Feb-14 04:00N 54°06' W 130°30'2854.9 280 / 81013.6 5.4 3.3
2018-Feb-14 03:59N 54°04' W 130°30'0 0.0
2018-Feb-14 03:29N 54°04' W 130°30'2 3.3
2018-Feb-14 03:00N 54°06' W 130°30'21196.9 270 / 111013.2 5.3 3.1
2018-Feb-14 02:59N 54°04' W 130°30'0 0.0
2018-Feb-14 02:29N 54°04' W 130°30'2 3.3
2018-Feb-14 02:00N 54°06' W 130°30'2750.7 290 / 121012.3 5.4 2.9
2018-Feb-14 01:59N 54°04' W 130°30'0 0.0
2018-Feb-14 01:29N 54°04' W 130°30'2 3.4
2018-Feb-14 01:00N 54°06' W 130°30'232.2 280 / 111011.9 5.5 3.1
2018-Feb-14 00:56N 54°04' W 130°30'0 0.0
2018-Feb-14 00:29N 54°04' W 130°30'2 3.3
2018-Feb-14 00:00N 54°06' W 130°30'25984.5 270 / 141011.2 5.7 2.5
2018-Feb-13 23:59N 54°04' W 130°30'0 0.0
2018-Feb-13 23:29N 54°04' W 130°30'  

Dump ship's entire track history